sensor_id;sensor_type;location;lat;lon;timestamp;pressure;altitude;pressure_sealevel;temperature;humidity
55271;BME280;41132;47.162;9.470;2023-07-02T00:01:28;96110.69;;;18.24;100.00
55271;BME280;41132;47.162;9.470;2023-07-02T00:03:53;96122.91;;;18.31;100.00
55271;BME280;41132;47.162;9.470;2023-07-02T00:06:18;96120.06;;;18.26;100.00
55271;BME280;41132;47.162;9.470;2023-07-02T00:08:44;96128.59;;;18.35;100.00
55271;BME280;41132;47.162;9.470;2023-07-02T00:11:09;96131.66;;;18.32;100.00
55271;BME280;41132;47.162;9.470;2023-07-02T00:13:38;96134.09;;;18.40;100.00
55271;BME280;41132;47.162;9.470;2023-07-02T00:16:04;96131.25;;;18.35;100.00
55271;BME280;41132;47.162;9.470;2023-07-02T00:18:29;96125.78;;;18.23;100.00
55271;BME280;41132;47.162;9.470;2023-07-02T00:20:59;96112.56;;;18.10;100.00
55271;BME280;41132;47.162;9.470;2023-07-02T00:23:25;96088.13;;;18.01;100.00
55271;BME280;41132;47.162;9.470;2023-07-02T00:25:51;96115.19;;;18.16;100.00
55271;BME280;41132;47.162;9.470;2023-07-02T00:28:17;96128.47;;;18.16;100.00
55271;BME280;41132;47.162;9.470;2023-07-02T00:30:42;96119.88;;;18.21;100.00
55271;BME280;41132;47.162;9.470;2023-07-02T00:33:08;96119.66;;;18.23;100.00
55271;BME280;41132;47.162;9.470;2023-07-02T00:35:33;96120.91;;;18.20;100.00
55271;BME280;41132;47.162;9.470;2023-07-02T00:37:59;96131.09;;;18.23;100.00
55271;BME280;41132;47.162;9.470;2023-07-02T00:40:27;96091.59;;;18.02;100.00
55271;BME280;41132;47.162;9.470;2023-07-02T00:42:52;96119.50;;;18.18;100.00
55271;BME280;41132;47.162;9.470;2023-07-02T00:45:17;96122.97;;;18.18;100.00
55271;BME280;41132;47.162;9.470;2023-07-02T00:47:43;96114.63;;;18.14;100.00
55271;BME280;41132;47.162;9.470;2023-07-02T00:50:10;96122.16;;;18.18;100.00
55271;BME280;41132;47.162;9.470;2023-07-02T00:52:35;96110.56;;;18.05;100.00
55271;BME280;41132;47.162;9.470;2023-07-02T00:55:02;96131.91;;;18.30;100.00
55271;BME280;41132;47.162;9.470;2023-07-02T00:57:27;96128.66;;;18.28;100.00
55271;BME280;41132;47.162;9.470;2023-07-02T00:59:56;96123.59;;;18.13;100.00
55271;BME280;41132;47.162;9.470;2023-07-02T01:02:22;96125.00;;;18.16;100.00
55271;BME280;41132;47.162;9.470;2023-07-02T01:04:50;96121.53;;;18.22;100.00
55271;BME280;41132;47.162;9.470;2023-07-02T01:07:17;96125.66;;;18.11;100.00
55271;BME280;41132;47.162;9.470;2023-07-02T01:09:43;96114.00;;;18.19;100.00
55271;BME280;41132;47.162;9.470;2023-07-02T01:12:09;96128.88;;;18.20;100.00
55271;BME280;41132;47.162;9.470;2023-07-02T01:14:41;96109.13;;;18.09;100.00
55271;BME280;41132;47.162;9.470;2023-07-02T01:17:08;96119.66;;;18.23;100.00
55271;BME280;41132;47.162;9.470;2023-07-02T01:19:43;96127.25;;;18.19;100.00
55271;BME280;41132;47.162;9.470;2023-07-02T01:22:09;96125.81;;;18.16;100.00
55271;BME280;41132;47.162;9.470;2023-07-02T01:24:36;96133.31;;;18.33;100.00
55271;BME280;41132;47.162;9.470;2023-07-02T01:27:02;96120.19;;;18.38;100.00
55271;BME280;41132;47.162;9.470;2023-07-02T01:29:30;96123.88;;;18.37;100.00
55271;BME280;41132;47.162;9.470;2023-07-02T01:31:56;96113.50;;;18.29;100.00
55271;BME280;41132;47.162;9.470;2023-07-02T01:34:22;96105.19;;;18.19;100.00
55271;BME280;41132;47.162;9.470;2023-07-02T01:36:47;96099.47;;;18.22;100.00
55271;BME280;41132;47.162;9.470;2023-07-02T01:39:12;96102.75;;;18.17;100.00
55271;BME280;41132;47.162;9.470;2023-07-02T01:41:50;96105.19;;;18.19;100.00
55271;BME280;41132;47.162;9.470;2023-07-02T01:44:16;96104.38;;;18.18;100.00
55271;BME280;41132;47.162;9.470;2023-07-02T01:46:41;96104.84;;;18.08;100.00
55271;BME280;41132;47.162;9.470;2023-07-02T01:49:06;96097.28;;;18.05;100.00
55271;BME280;41132;47.162;9.470;2023-07-02T01:51:33;96106.69;;;18.08;100.00
55271;BME280;41132;47.162;9.470;2023-07-02T01:53:58;96085.47;;;18.01;100.00
55271;BME280;41132;47.162;9.470;2023-07-02T01:56:24;96091.44;;;17.97;100.00
55271;BME280;41132;47.162;9.470;2023-07-02T01:58:49;96102.59;;;18.05;100.00
55271;BME280;41132;47.162;9.470;2023-07-02T02:01:14;96099.56;;;18.02;100.00
55271;BME280;41132;47.162;9.470;2023-07-02T02:03:40;96095.66;;;18.04;100.00
55271;BME280;41132;47.162;9.470;2023-07-02T02:06:05;96091.84;;;17.93;100.00
55271;BME280;41132;47.162;9.470;2023-07-02T02:08:31;96111.59;;;18.04;100.00
55271;BME280;41132;47.162;9.470;2023-07-02T02:10:56;96116.50;;;18.01;100.00
55271;BME280;41132;47.162;9.470;2023-07-02T02:13:21;96120.38;;;18.05;100.00
55271;BME280;41132;47.162;9.470;2023-07-02T02:15:47;96119.13;;;18.07;100.00
55271;BME280;41132;47.162;9.470;2023-07-02T02:18:12;96120.13;;;18.13;100.00
55271;BME280;41132;47.162;9.470;2023-07-02T02:20:39;96114.44;;;18.09;100.00
55271;BME280;41132;47.162;9.470;2023-07-02T02:23:04;96106.72;;;18.01;100.00
55271;BME280;41132;47.162;9.470;2023-07-02T02:25:29;96098.34;;;17.98;100.00
55271;BME280;41132;47.162;9.470;2023-07-02T02:27:55;96118.72;;;18.10;100.00
55271;BME280;41132;47.162;9.470;2023-07-02T02:30:20;96120.34;;;18.11;100.00
55271;BME280;41132;47.162;9.470;2023-07-02T02:32:45;96109.53;;;18.13;100.00
55271;BME280;41132;47.162;9.470;2023-07-02T02:35:11;96101.59;;;18.06;100.00
55271;BME280;41132;47.162;9.470;2023-07-02T02:37:37;96105.25;;;18.05;100.00
55271;BME280;41132;47.162;9.470;2023-07-02T02:40:06;96106.53;;;17.96;100.00
55271;BME280;41132;47.162;9.470;2023-07-02T02:42:31;96100.84;;;17.92;100.00
55271;BME280;41132;47.162;9.470;2023-07-02T02:44:57;96099.19;;;17.91;100.00
55271;BME280;41132;47.162;9.470;2023-07-02T02:47:22;96105.34;;;17.92;100.00
55271;BME280;41132;47.162;9.470;2023-07-02T02:49:47;96100.84;;;17.79;100.00
55271;BME280;41132;47.162;9.470;2023-07-02T02:52:13;96108.81;;;17.92;100.00
55271;BME280;41132;47.162;9.470;2023-07-02T02:54:39;96111.66;;;17.91;100.00
55271;BME280;41132;47.162;9.470;2023-07-02T02:57:05;96122.69;;;17.94;100.00
55271;BME280;41132;47.162;9.470;2023-07-02T02:59:30;96107.59;;;17.88;100.00
55271;BME280;41132;47.162;9.470;2023-07-02T03:01:56;96106.16;;;17.86;100.00
55271;BME280;41132;47.162;9.470;2023-07-02T03:04:21;96095.75;;;17.78;100.00
55271;BME280;41132;47.162;9.470;2023-07-02T03:06:49;96123.69;;;17.93;100.00
55271;BME280;41132;47.162;9.470;2023-07-02T03:09:15;96103.94;;;17.76;100.00
55271;BME280;41132;47.162;9.470;2023-07-02T03:11:40;96138.00;;;17.92;100.00
55271;BME280;41132;47.162;9.470;2023-07-02T03:14:05;96141.03;;;17.96;100.00
55271;BME280;41132;47.162;9.470;2023-07-02T03:16:31;96149.00;;;17.96;100.00
55271;BME280;41132;47.162;9.470;2023-07-02T03:18:58;96129.66;;;17.82;100.00
55271;BME280;41132;47.162;9.470;2023-07-02T03:21:24;96148.81;;;17.91;100.00
55271;BME280;41132;47.162;9.470;2023-07-02T03:23:49;96146.00;;;17.86;100.00
55271;BME280;41132;47.162;9.470;2023-07-02T03:26:15;96151.31;;;17.86;100.00
55271;BME280;41132;47.162;9.470;2023-07-02T03:28:40;96171.72;;;17.92;100.00
55271;BME280;41132;47.162;9.470;2023-07-02T03:31:06;96164.94;;;17.89;100.00
55271;BME280;41132;47.162;9.470;2023-07-02T03:33:32;96168.00;;;17.93;100.00
55271;BME280;41132;47.162;9.470;2023-07-02T03:35:57;96174.38;;;17.92;100.00
55271;BME280;41132;47.162;9.470;2023-07-02T03:38:23;96172.09;;;17.89;100.00
55271;BME280;41132;47.162;9.470;2023-07-02T03:40:48;96187.22;;;17.95;100.00
55271;BME280;41132;47.162;9.470;2023-07-02T03:43:13;96170.88;;;17.91;100.00
55271;BME280;41132;47.162;9.470;2023-07-02T03:45:39;96184.56;;;17.95;100.00
55271;BME280;41132;47.162;9.470;2023-07-02T03:48:04;96193.31;;;17.95;100.00
55271;BME280;41132;47.162;9.470;2023-07-02T03:50:30;96189.69;;;17.90;100.00
55271;BME280;41132;47.162;9.470;2023-07-02T03:52:55;96198.03;;;17.93;100.00
55271;BME280;41132;47.162;9.470;2023-07-02T03:55:20;96193.34;;;17.89;100.00
55271;BME280;41132;47.162;9.470;2023-07-02T03:57:46;96202.94;;;17.90;100.00
55271;BME280;41132;47.162;9.470;2023-07-02T04:00:11;96201.91;;;17.91;100.00
55271;BME280;41132;47.162;9.470;2023-07-02T04:02:37;96203.56;;;17.92;100.00
55271;BME280;41132;47.162;9.470;2023-07-02T04:05:03;96201.91;;;17.91;100.00
55271;BME280;41132;47.162;9.470;2023-07-02T04:07:28;96204.78;;;17.89;100.00
55271;BME280;41132;47.162;9.470;2023-07-02T04:09:53;96213.56;;;17.97;100.00
55271;BME280;41132;47.162;9.470;2023-07-02T04:12:19;96212.94;;;17.94;100.00
55271;BME280;41132;47.162;9.470;2023-07-02T04:14:44;96190.06;;;17.73;100.00
55271;BME280;41132;47.162;9.470;2023-07-02T04:17:09;96215.00;;;17.92;100.00
55271;BME280;41132;47.162;9.470;2023-07-02T04:19:35;96186.00;;;17.71;100.00
55271;BME280;41132;47.162;9.470;2023-07-02T04:22:00;96215.78;;;17.80;100.00
55271;BME280;41132;47.162;9.470;2023-07-02T04:24:26;96220.75;;;17.83;100.00
55271;BME280;41132;47.162;9.470;2023-07-02T04:26:51;96216.63;;;17.87;100.00
55271;BME280;41132;47.162;9.470;2023-07-02T04:29:18;96226.22;;;17.88;100.00
55271;BME280;41132;47.162;9.470;2023-07-02T04:31:43;96217.66;;;17.86;100.00
55271;BME280;41132;47.162;9.470;2023-07-02T04:34:08;96216.22;;;17.77;100.00
55271;BME280;41132;47.162;9.470;2023-07-02T04:36:34;96219.50;;;17.79;100.00
55271;BME280;41132;47.162;9.470;2023-07-02T04:38:59;96223.16;;;17.78;100.00
55271;BME280;41132;47.162;9.470;2023-07-02T04:41:26;96239.69;;;17.80;100.00
55271;BME280;41132;47.162;9.470;2023-07-02T04:43:51;96231.56;;;17.81;100.00
55271;BME280;41132;47.162;9.470;2023-07-02T04:46:16;96235.81;;;17.89;100.00
55271;BME280;41132;47.162;9.470;2023-07-02T04:48:43;96241.53;;;17.92;100.00
55271;BME280;41132;47.162;9.470;2023-07-02T04:51:08;96240.94;;;17.84;100.00
55271;BME280;41132;47.162;9.470;2023-07-02T04:53:33;96244.38;;;17.91;100.00
55271;BME280;41132;47.162;9.470;2023-07-02T04:55:59;96247.84;;;17.91;100.00
55271;BME280;41132;47.162;9.470;2023-07-02T04:58:24;96245.22;;;17.85;100.00
55271;BME280;41132;47.162;9.470;2023-07-02T05:00:50;96247.66;;;17.86;100.00
55271;BME280;41132;47.162;9.470;2023-07-02T05:03:15;96254.63;;;17.87;100.00
55271;BME280;41132;47.162;9.470;2023-07-02T05:05:40;96245.63;;;17.82;100.00
55271;BME280;41132;47.162;9.470;2023-07-02T05:08:06;96253.19;;;17.85;100.00
55271;BME280;41132;47.162;9.470;2023-07-02T05:10:31;96233.38;;;17.74;100.00
55271;BME280;41132;47.162;9.470;2023-07-02T05:12:57;96259.09;;;17.87;100.00
55271;BME280;41132;47.162;9.470;2023-07-02T05:15:23;96261.53;;;17.95;100.00
55271;BME280;41132;47.162;9.470;2023-07-02T05:17:49;96256.06;;;17.90;100.00
55271;BME280;41132;47.162;9.470;2023-07-02T05:20:14;96261.53;;;17.95;100.00
55271;BME280;41132;47.162;9.470;2023-07-02T05:22:39;96261.53;;;18.02;100.00
55271;BME280;41132;47.162;9.470;2023-07-02T05:25:05;96265.19;;;18.01;100.00
55271;BME280;41132;47.162;9.470;2023-07-02T05:27:31;96263.38;;;18.01;100.00
55271;BME280;41132;47.162;9.470;2023-07-02T05:29:56;96257.22;;;18.01;100.00
55271;BME280;41132;47.162;9.470;2023-07-02T05:32:21;96256.59;;;18.05;100.00
55271;BME280;41132;47.162;9.470;2023-07-02T05:34:47;96261.28;;;18.10;100.00
55271;BME280;41132;47.162;9.470;2023-07-02T05:37:12;96256.81;;;18.10;100.00
55271;BME280;41132;47.162;9.470;2023-07-02T05:39:37;96241.28;;;18.01;100.00
55271;BME280;41132;47.162;9.470;2023-07-02T05:42:03;96237.44;;;18.03;100.00
55271;BME280;41132;47.162;9.470;2023-07-02T05:44:29;96254.78;;;18.12;100.00
55271;BME280;41132;47.162;9.470;2023-07-02T05:46:54;96254.34;;;18.15;100.00
55271;BME280;41132;47.162;9.470;2023-07-02T05:49:20;96243.28;;;18.19;100.00
55271;BME280;41132;47.162;9.470;2023-07-02T05:51:45;96256.97;;;18.22;100.00
55271;BME280;41132;47.162;9.470;2023-07-02T05:54:10;96262.50;;;18.21;100.00
55271;BME280;41132;47.162;9.470;2023-07-02T05:56:36;96267.59;;;18.22;100.00
55271;BME280;41132;47.162;9.470;2023-07-02T05:59:01;96258.06;;;18.08;100.00
55271;BME280;41132;47.162;9.470;2023-07-02T06:01:26;96261.75;;;17.93;100.00
55271;BME280;41132;47.162;9.470;2023-07-02T06:03:52;96277.66;;;18.00;100.00
55271;BME280;41132;47.162;9.470;2023-07-02T06:06:18;96268.88;;;18.00;100.00
55271;BME280;41132;47.162;9.470;2023-07-02T06:08:43;96264.81;;;17.90;100.00
55271;BME280;41132;47.162;9.470;2023-07-02T06:11:09;96277.47;;;17.95;100.00
55271;BME280;41132;47.162;9.470;2023-07-02T06:13:35;96275.81;;;18.01;100.00
55271;BME280;41132;47.162;9.470;2023-07-02T06:16:00;96255.44;;;17.88;100.00
55271;BME280;41132;47.162;9.470;2023-07-02T06:18:26;96282.56;;;18.03;100.00
55271;BME280;41132;47.162;9.470;2023-07-02T06:20:51;96274.59;;;18.03;100.00
55271;BME280;41132;47.162;9.470;2023-07-02T06:23:17;96291.13;;;18.05;100.00
55271;BME280;41132;47.162;9.470;2023-07-02T06:25:42;96268.47;;;17.96;100.00
55271;BME280;41132;47.162;9.470;2023-07-02T06:28:07;96277.22;;;18.10;100.00
55271;BME280;41132;47.162;9.470;2023-07-02T06:30:33;96287.63;;;18.18;100.00
55271;BME280;41132;47.162;9.470;2023-07-02T06:32:58;96286.00;;;18.17;100.00
55271;BME280;41132;47.162;9.470;2023-07-02T06:35:24;96279.09;;;17.96;100.00
55271;BME280;41132;47.162;9.470;2023-07-02T06:37:49;96295.00;;;18.09;100.00
55271;BME280;41132;47.162;9.470;2023-07-02T06:40:14;96290.72;;;18.08;100.00
55271;BME280;41132;47.162;9.470;2023-07-02T06:42:40;96312.59;;;18.10;100.00
55271;BME280;41132;47.162;9.470;2023-07-02T06:45:06;96289.94;;;18.01;100.00
55271;BME280;41132;47.162;9.470;2023-07-02T06:47:32;96311.16;;;18.08;100.00
55271;BME280;41132;47.162;9.470;2023-07-02T06:49:57;96319.94;;;18.02;100.00
55271;BME280;41132;47.162;9.470;2023-07-02T06:52:23;96313.59;;;17.96;100.00
55271;BME280;41132;47.162;9.470;2023-07-02T06:54:49;96324.84;;;17.98;100.00
55271;BME280;41132;47.162;9.470;2023-07-02T06:57:15;96326.69;;;17.91;100.00
55271;BME280;41132;47.162;9.470;2023-07-02T06:59:40;96327.31;;;17.86;100.00
55271;BME280;41132;47.162;9.470;2023-07-02T07:02:06;96323.03;;;17.92;100.00
55271;BME280;41132;47.162;9.470;2023-07-02T07:04:32;96321.19;;;17.99;100.00
55271;BME280;41132;47.162;9.470;2023-07-02T07:06:57;96332.00;;;17.98;100.00
55271;BME280;41132;47.162;9.470;2023-07-02T07:09:23;96308.91;;;17.91;100.00
55271;BME280;41132;47.162;9.470;2023-07-02T07:11:48;96328.28;;;18.05;100.00
55271;BME280;41132;47.162;9.470;2023-07-02T07:14:14;96324.84;;;17.91;100.00
55271;BME280;41132;47.162;9.470;2023-07-02T07:16:39;96309.97;;;17.84;100.00
55271;BME280;41132;47.162;9.470;2023-07-02T07:19:05;96314.66;;;17.88;100.00
55271;BME280;41132;47.162;9.470;2023-07-02T07:21:31;96339.75;;;17.99;100.00
55271;BME280;41132;47.162;9.470;2023-07-02T07:23:56;96329.75;;;17.94;100.00
55271;BME280;41132;47.162;9.470;2023-07-02T07:26:22;96318.53;;;17.86;100.00
55271;BME280;41132;47.162;9.470;2023-07-02T07:28:47;96325.25;;;17.95;100.00
55271;BME280;41132;47.162;9.470;2023-07-02T07:31:12;96330.56;;;17.95;100.00
55271;BME280;41132;47.162;9.470;2023-07-02T07:33:38;96326.88;;;18.03;100.00
55271;BME280;41132;47.162;9.470;2023-07-02T07:36:04;96337.91;;;18.06;100.00
55271;BME280;41132;47.162;9.470;2023-07-02T07:38:29;96331.56;;;18.07;100.00
55271;BME280;41132;47.162;9.470;2023-07-02T07:40:54;96335.25;;;18.06;100.00
55271;BME280;41132;47.162;9.470;2023-07-02T07:43:20;96343.44;;;17.98;100.00
55271;BME280;41132;47.162;9.470;2023-07-02T07:45:45;96327.50;;;17.98;100.00
55271;BME280;41132;47.162;9.470;2023-07-02T07:48:11;96332.78;;;18.11;100.00
55271;BME280;41132;47.162;9.470;2023-07-02T07:50:36;96333.81;;;18.10;100.00
55271;BME280;41132;47.162;9.470;2023-07-02T07:53:01;96335.63;;;18.16;100.00
55271;BME280;41132;47.162;9.470;2023-07-02T07:55:27;96339.94;;;18.24;100.00
55271;BME280;41132;47.162;9.470;2023-07-02T07:57:52;96338.25;;;18.30;100.00
55271;BME280;41132;47.162;9.470;2023-07-02T08:00:18;96326.84;;;18.23;100.00
55271;BME280;41132;47.162;9.470;2023-07-02T08:02:45;96322.56;;;18.22;100.00
55271;BME280;41132;47.162;9.470;2023-07-02T08:05:10;96325.41;;;18.27;100.00
55271;BME280;41132;47.162;9.470;2023-07-02T08:07:36;96341.09;;;18.42;100.00
55271;BME280;41132;47.162;9.470;2023-07-02T08:10:02;96315.75;;;18.39;100.00
55271;BME280;41132;47.162;9.470;2023-07-02T08:12:28;96341.50;;;18.45;100.00
55271;BME280;41132;47.162;9.470;2023-07-02T08:14:55;96333.97;;;18.42;100.00
55271;BME280;41132;47.162;9.470;2023-07-02T08:17:20;96333.94;;;18.49;100.00
55271;BME280;41132;47.162;9.470;2023-07-02T08:19:45;96341.06;;;18.55;100.00
55271;BME280;41132;47.162;9.470;2023-07-02T08:22:11;96344.31;;;18.57;100.00
55271;BME280;41132;47.162;9.470;2023-07-02T08:24:37;96330.63;;;18.60;100.00
55271;BME280;41132;47.162;9.470;2023-07-02T08:27:02;96332.19;;;18.81;100.00
55271;BME280;41132;47.162;9.470;2023-07-02T08:29:29;96322.25;;;19.08;100.00
55271;BME280;41132;47.162;9.470;2023-07-02T08:31:55;96340.03;;;19.14;100.00
55271;BME280;41132;47.162;9.470;2023-07-02T08:34:21;96343.59;;;19.33;100.00
55271;BME280;41132;47.162;9.470;2023-07-02T08:36:46;96334.84;;;19.26;100.00
55271;BME280;41132;47.162;9.470;2023-07-02T08:39:12;96337.91;;;19.23;100.00
55271;BME280;41132;47.162;9.470;2023-07-02T08:41:45;96349.41;;;19.17;100.00
55271;BME280;41132;47.162;9.470;2023-07-02T08:44:11;96343.50;;;19.15;100.00
55271;BME280;41132;47.162;9.470;2023-07-02T08:46:39;96331.81;;;19.16;100.00
55271;BME280;41132;47.162;9.470;2023-07-02T08:49:04;96346.69;;;19.30;100.00
55271;BME280;41132;47.162;9.470;2023-07-02T08:51:30;96350.31;;;19.36;100.00
55271;BME280;41132;47.162;9.470;2023-07-02T08:53:55;96358.09;;;19.37;100.00
55271;BME280;41132;47.162;9.470;2023-07-02T08:56:20;96337.97;;;19.10;100.00
55271;BME280;41132;47.162;9.470;2023-07-02T08:58:46;96355.75;;;19.16;100.00
55271;BME280;41132;47.162;9.470;2023-07-02T09:01:13;96361.69;;;19.18;100.00
55271;BME280;41132;47.162;9.470;2023-07-02T09:03:40;96341.25;;;19.12;100.00
55271;BME280;41132;47.162;9.470;2023-07-02T09:06:09;96349.81;;;19.14;100.00
55271;BME280;41132;47.162;9.470;2023-07-02T09:08:35;96349.34;;;19.30;100.00
55271;BME280;41132;47.162;9.470;2023-07-02T09:11:11;96352.63;;;19.26;100.00
55271;BME280;41132;47.162;9.470;2023-07-02T09:13:51;96352.41;;;19.27;100.00
55271;BME280;41132;47.162;9.470;2023-07-02T09:16:28;96340.75;;;19.28;100.00
55271;BME280;41132;47.162;9.470;2023-07-02T09:21:22;96348.31;;;19.31;100.00
55271;BME280;41132;47.162;9.470;2023-07-02T09:23:48;96341.78;;;19.27;100.00
55271;BME280;41132;47.162;9.470;2023-07-02T09:26:23;96336.53;;;19.14;100.00
55271;BME280;41132;47.162;9.470;2023-07-02T09:28:49;96336.66;;;19.26;100.00
55271;BME280;41132;47.162;9.470;2023-07-02T09:31:15;96338.13;;;19.53;100.00
55271;BME280;41132;47.162;9.470;2023-07-02T09:33:41;96333.44;;;20.24;100.00
55271;BME280;41132;47.162;9.470;2023-07-02T09:36:06;96344.25;;;20.48;100.00
55271;BME280;41132;47.162;9.470;2023-07-02T09:38:32;96338.19;;;20.96;100.00
55271;BME280;41132;47.162;9.470;2023-07-02T09:40:58;96332.81;;;21.44;100.00
55271;BME280;41132;47.162;9.470;2023-07-02T09:43:25;96334.69;;;21.25;100.00
55271;BME280;41132;47.162;9.470;2023-07-02T09:45:54;96338.59;;;21.11;100.00
55271;BME280;41132;47.162;9.470;2023-07-02T09:48:23;96331.09;;;21.20;100.00
55271;BME280;41132;47.162;9.470;2023-07-02T09:50:50;96324.56;;;21.16;100.00
55271;BME280;41132;47.162;9.470;2023-07-02T09:53:15;96331.69;;;21.22;100.00
55271;BME280;41132;47.162;9.470;2023-07-02T09:55:44;96331.59;;;20.98;100.00
55271;BME280;41132;47.162;9.470;2023-07-02T09:58:10;96331.91;;;20.90;100.00
55271;BME280;41132;47.162;9.470;2023-07-02T10:00:37;96320.34;;;20.78;100.00
55271;BME280;41132;47.162;9.470;2023-07-02T10:03:03;96331.63;;;20.61;100.00
55271;BME280;41132;47.162;9.470;2023-07-02T10:05:33;96339.59;;;20.43;100.00
55271;BME280;41132;47.162;9.470;2023-07-02T10:08:20;96324.84;;;20.22;100.00
55271;BME280;41132;47.162;9.470;2023-07-02T10:10:48;96321.22;;;20.16;100.00
55271;BME280;41132;47.162;9.470;2023-07-02T10:13:13;96334.03;;;20.26;100.00
55271;BME280;41132;47.162;9.470;2023-07-02T10:15:39;96329.59;;;20.20;100.00
55271;BME280;41132;47.162;9.470;2023-07-02T10:18:08;96343.31;;;20.23;100.00
55271;BME280;41132;47.162;9.470;2023-07-02T10:20:34;96331.75;;;20.30;100.00
55271;BME280;41132;47.162;9.470;2023-07-02T10:23:00;96335.00;;;20.32;100.00
55271;BME280;41132;47.162;9.470;2023-07-02T10:25:34;96328.59;;;20.39;100.00
55271;BME280;41132;47.162;9.470;2023-07-02T10:28:20;96328.25;;;20.48;100.00
55271;BME280;41132;47.162;9.470;2023-07-02T10:30:52;96342.47;;;20.67;100.00
55271;BME280;41132;47.162;9.470;2023-07-02T10:33:19;96335.41;;;20.72;100.00
55271;BME280;41132;47.162;9.470;2023-07-02T10:35:46;96338.28;;;20.71;100.00
55271;BME280;41132;47.162;9.470;2023-07-02T10:38:24;96320.47;;;20.71;100.00
55271;BME280;41132;47.162;9.470;2023-07-02T10:40:59;96333.69;;;20.78;100.00
55271;BME280;41132;47.162;9.470;2023-07-02T10:43:26;96325.91;;;20.76;100.00
55271;BME280;41132;47.162;9.470;2023-07-02T10:45:54;96332.56;;;20.85;100.00
55271;BME280;41132;47.162;9.470;2023-07-02T10:48:20;96320.50;;;20.83;100.00
55271;BME280;41132;47.162;9.470;2023-07-02T10:50:45;96304.94;;;20.80;100.00
55271;BME280;41132;47.162;9.470;2023-07-02T10:53:15;96318.28;;;20.80;100.00
55271;BME280;41132;47.162;9.470;2023-07-02T10:55:41;96317.28;;;20.93;100.00
55271;BME280;41132;47.162;9.470;2023-07-02T10:58:09;96322.50;;;20.88;100.00
55271;BME280;41132;47.162;9.470;2023-07-02T11:00:45;96316.13;;;20.89;100.00
55271;BME280;41132;47.162;9.470;2023-07-02T11:03:26;96317.44;;;20.98;100.00
55271;BME280;41132;47.162;9.470;2023-07-02T11:05:53;96325.22;;;20.99;100.00
55271;BME280;41132;47.162;9.470;2023-07-02T11:08:19;96320.38;;;21.08;100.00
55271;BME280;41132;47.162;9.470;2023-07-02T11:10:46;96321.00;;;21.22;100.00
55271;BME280;41132;47.162;9.470;2023-07-02T11:13:20;96320.34;;;21.38;100.00
55271;BME280;41132;47.162;9.470;2023-07-02T11:15:46;96324.13;;;21.49;100.00
55271;BME280;41132;47.162;9.470;2023-07-02T11:18:16;96320.50;;;21.43;100.00
55271;BME280;41132;47.162;9.470;2023-07-02T11:20:43;96306.06;;;21.33;100.00
55271;BME280;41132;47.162;9.470;2023-07-02T11:23:22;96297.00;;;21.34;100.00
55271;BME280;41132;47.162;9.470;2023-07-02T11:25:58;96311.00;;;21.47;100.00
55271;BME280;41132;47.162;9.470;2023-07-02T11:28:24;96304.06;;;21.58;100.00
55271;BME280;41132;47.162;9.470;2023-07-02T11:30:50;96305.25;;;21.62;100.00
55271;BME280;41132;47.162;9.470;2023-07-02T11:33:16;96301.88;;;21.79;100.00
55271;BME280;41132;47.162;9.470;2023-07-02T11:35:53;96300.25;;;21.89;100.00
55271;BME280;41132;47.162;9.470;2023-07-02T11:38:18;96248.47;;;21.67;100.00
55271;BME280;41132;47.162;9.470;2023-07-02T11:40:44;96309.88;;;22.02;100.00
55271;BME280;41132;47.162;9.470;2023-07-02T11:43:11;96271.56;;;21.61;100.00
55271;BME280;41132;47.162;9.470;2023-07-02T11:45:37;96278.16;;;21.71;100.00
55271;BME280;41132;47.162;9.470;2023-07-02T11:48:02;96259.38;;;21.54;100.00
55271;BME280;41132;47.162;9.470;2023-07-02T11:50:28;96297.22;;;21.74;100.00
55271;BME280;41132;47.162;9.470;2023-07-02T11:52:55;96266.66;;;21.46;100.00
55271;BME280;41132;47.162;9.470;2023-07-02T11:55:21;96293.66;;;21.80;100.00
55271;BME280;41132;47.162;9.470;2023-07-02T11:57:49;96274.56;;;21.53;100.00
55271;BME280;41132;47.162;9.470;2023-07-02T12:00:15;96277.94;;;21.72;100.00
55271;BME280;41132;47.162;9.470;2023-07-02T12:02:40;96290.03;;;21.86;100.00
55271;BME280;41132;47.162;9.470;2023-07-02T12:05:06;96277.84;;;21.79;100.00
55271;BME280;41132;47.162;9.470;2023-07-02T12:07:32;96274.81;;;21.75;100.00
55271;BME280;41132;47.162;9.470;2023-07-02T12:09:57;96260.78;;;21.92;100.00
55271;BME280;41132;47.162;9.470;2023-07-02T12:12:22;96259.38;;;22.01;100.00
55271;BME280;41132;47.162;9.470;2023-07-02T12:14:48;96272.81;;;22.18;100.00
55271;BME280;41132;47.162;9.470;2023-07-02T12:17:13;96279.56;;;22.20;98.98
55271;BME280;41132;47.162;9.470;2023-07-02T12:19:39;96268.53;;;22.28;96.38
55271;BME280;41132;47.162;9.470;2023-07-02T12:22:05;96259.44;;;22.41;99.75
55271;BME280;41132;47.162;9.470;2023-07-02T12:24:31;96255.50;;;22.44;100.00
55271;BME280;41132;47.162;9.470;2023-07-02T12:26:56;96265.34;;;22.55;99.87
55271;BME280;41132;47.162;9.470;2023-07-02T12:29:22;96260.97;;;22.25;92.26
55271;BME280;41132;47.162;9.470;2023-07-02T12:31:47;96264.72;;;22.24;98.29
55271;BME280;41132;47.162;9.470;2023-07-02T12:34:12;96270.75;;;22.31;98.99
55271;BME280;41132;47.162;9.470;2023-07-02T12:36:38;96255.88;;;22.24;100.00
55271;BME280;41132;47.162;9.470;2023-07-02T12:39:03;96262.63;;;22.26;98.86
55271;BME280;41132;47.162;9.470;2023-07-02T12:41:28;96271.44;;;22.15;96.13
55271;BME280;41132;47.162;9.470;2023-07-02T12:43:56;96269.94;;;22.07;97.73
55271;BME280;41132;47.162;9.470;2023-07-02T12:46:21;96269.25;;;22.12;100.00
55271;BME280;41132;47.162;9.470;2023-07-02T12:48:47;96249.13;;;21.98;100.00